sensor_id;sensor_type;location;lat;lon;timestamp;P1;durP1;ratioP1;P2;durP2;ratioP2
11982;SDS011;72623;51.184;7.176;2023-12-07T00:00:18;47.87;;;25.00;;
11982;SDS011;72623;51.184;7.176;2023-12-07T00:02:45;47.63;;;24.63;;
11982;SDS011;72623;51.184;7.176;2023-12-07T00:05:12;50.43;;;23.60;;
11982;SDS011;72623;51.184;7.176;2023-12-07T00:07:38;49.07;;;26.23;;
11982;SDS011;72623;51.184;7.176;2023-12-07T00:10:05;55.90;;;24.70;;
11982;SDS011;72623;51.184;7.176;2023-12-07T00:12:32;42.60;;;22.53;;
11982;SDS011;72623;51.184;7.176;2023-12-07T00:14:59;47.90;;;23.90;;
11982;SDS011;72623;51.184;7.176;2023-12-07T00:17:25;49.13;;;25.53;;
11982;SDS011;72623;51.184;7.176;2023-12-07T00:19:52;46.23;;;23.03;;
11982;SDS011;72623;51.184;7.176;2023-12-07T00:22:19;48.73;;;23.87;;
11982;SDS011;72623;51.184;7.176;2023-12-07T00:24:46;47.27;;;24.33;;
11982;SDS011;72623;51.184;7.176;2023-12-07T00:27:13;54.17;;;23.53;;
11982;SDS011;72623;51.184;7.176;2023-12-07T00:29:40;53.20;;;24.03;;
11982;SDS011;72623;51.184;7.176;2023-12-07T00:32:06;42.97;;;22.57;;
11982;SDS011;72623;51.184;7.176;2023-12-07T00:34:33;50.93;;;23.37;;
11982;SDS011;72623;51.184;7.176;2023-12-07T00:37:00;43.90;;;21.70;;
11982;SDS011;72623;51.184;7.176;2023-12-07T00:39:28;43.63;;;22.33;;
11982;SDS011;72623;51.184;7.176;2023-12-07T00:41:54;46.93;;;21.77;;
11982;SDS011;72623;51.184;7.176;2023-12-07T00:44:21;46.40;;;23.70;;
11982;SDS011;72623;51.184;7.176;2023-12-07T00:46:48;46.20;;;22.97;;
11982;SDS011;72623;51.184;7.176;2023-12-07T00:49:14;42.20;;;22.80;;
11982;SDS011;72623;51.184;7.176;2023-12-07T00:51:41;45.63;;;22.93;;
11982;SDS011;72623;51.184;7.176;2023-12-07T01:07:36;47.77;;;21.00;;
11982;SDS011;72623;51.184;7.176;2023-12-07T01:10:02;52.10;;;22.20;;
11982;SDS011;72623;51.184;7.176;2023-12-07T01:12:29;48.10;;;21.60;;
11982;SDS011;72623;51.184;7.176;2023-12-07T01:14:56;43.67;;;21.57;;
11982;SDS011;72623;51.184;7.176;2023-12-07T01:17:22;37.60;;;21.07;;
11982;SDS011;72623;51.184;7.176;2023-12-07T01:19:49;38.37;;;20.17;;
11982;SDS011;72623;51.184;7.176;2023-12-07T01:22:15;39.43;;;20.47;;
11982;SDS011;72623;51.184;7.176;2023-12-07T01:24:42;38.17;;;19.20;;
11982;SDS011;72623;51.184;7.176;2023-12-07T01:27:09;40.47;;;20.67;;
11982;SDS011;72623;51.184;7.176;2023-12-07T01:29:35;42.57;;;20.87;;
11982;SDS011;72623;51.184;7.176;2023-12-07T01:32:02;42.87;;;21.30;;
11982;SDS011;72623;51.184;7.176;2023-12-07T01:34:29;37.50;;;19.03;;
11982;SDS011;72623;51.184;7.176;2023-12-07T01:36:55;36.60;;;20.40;;
11982;SDS011;72623;51.184;7.176;2023-12-07T01:39:22;37.60;;;20.33;;
11982;SDS011;72623;51.184;7.176;2023-12-07T01:41:49;35.80;;;18.57;;
11982;SDS011;72623;51.184;7.176;2023-12-07T01:44:17;43.23;;;22.50;;
11982;SDS011;72623;51.184;7.176;2023-12-07T01:46:44;36.97;;;20.40;;
11982;SDS011;72623;51.184;7.176;2023-12-07T01:49:12;37.97;;;20.63;;
11982;SDS011;72623;51.184;7.176;2023-12-07T01:51:38;34.60;;;19.17;;
11982;SDS011;72623;51.184;7.176;2023-12-07T01:54:05;37.43;;;19.33;;
11982;SDS011;72623;51.184;7.176;2023-12-07T01:56:32;36.43;;;20.77;;
11982;SDS011;72623;51.184;7.176;2023-12-07T01:58:58;40.20;;;18.87;;
11982;SDS011;72623;51.184;7.176;2023-12-07T02:01:25;34.07;;;18.57;;
11982;SDS011;72623;51.184;7.176;2023-12-07T02:03:51;34.97;;;20.30;;
11982;SDS011;72623;51.184;7.176;2023-12-07T02:06:18;38.40;;;20.47;;
11982;SDS011;72623;51.184;7.176;2023-12-07T02:08:45;35.47;;;20.50;;
11982;SDS011;72623;51.184;7.176;2023-12-07T02:11:12;39.67;;;20.83;;
11982;SDS011;72623;51.184;7.176;2023-12-07T02:13:39;37.07;;;18.27;;
11982;SDS011;72623;51.184;7.176;2023-12-07T02:16:08;38.80;;;19.77;;
11982;SDS011;72623;51.184;7.176;2023-12-07T02:18:42;35.57;;;19.73;;
11982;SDS011;72623;51.184;7.176;2023-12-07T02:21:19;36.87;;;18.53;;
11982;SDS011;72623;51.184;7.176;2023-12-07T02:23:56;33.50;;;19.57;;
11982;SDS011;72623;51.184;7.176;2023-12-07T02:26:36;39.50;;;19.00;;
11982;SDS011;72623;51.184;7.176;2023-12-07T02:29:04;36.93;;;18.23;;
11982;SDS011;72623;51.184;7.176;2023-12-07T02:31:30;36.07;;;18.23;;
11982;SDS011;72623;51.184;7.176;2023-12-07T02:33:58;32.47;;;18.70;;
11982;SDS011;72623;51.184;7.176;2023-12-07T02:36:25;35.90;;;17.33;;
11982;SDS011;72623;51.184;7.176;2023-12-07T02:38:56;32.40;;;17.37;;
11982;SDS011;72623;51.184;7.176;2023-12-07T02:41:26;35.83;;;18.53;;
11982;SDS011;72623;51.184;7.176;2023-12-07T02:43:54;35.30;;;18.50;;
11982;SDS011;72623;51.184;7.176;2023-12-07T02:46:22;37.40;;;18.47;;
11982;SDS011;72623;51.184;7.176;2023-12-07T02:48:49;35.70;;;18.57;;
11982;SDS011;72623;51.184;7.176;2023-12-07T02:51:16;35.17;;;18.57;;
11982;SDS011;72623;51.184;7.176;2023-12-07T02:53:42;34.53;;;17.27;;
11982;SDS011;72623;51.184;7.176;2023-12-07T02:56:10;30.17;;;18.27;;
11982;SDS011;72623;51.184;7.176;2023-12-07T02:58:37;32.57;;;17.13;;
11982;SDS011;72623;51.184;7.176;2023-12-07T03:01:03;34.30;;;18.60;;
11982;SDS011;72623;51.184;7.176;2023-12-07T03:03:30;29.67;;;16.87;;
11982;SDS011;72623;51.184;7.176;2023-12-07T03:05:56;27.43;;;15.33;;
11982;SDS011;72623;51.184;7.176;2023-12-07T03:08:23;32.43;;;18.30;;
11982;SDS011;72623;51.184;7.176;2023-12-07T03:10:50;31.13;;;16.43;;
11982;SDS011;72623;51.184;7.176;2023-12-07T03:13:16;36.20;;;19.03;;
11982;SDS011;72623;51.184;7.176;2023-12-07T03:15:43;33.00;;;18.60;;
11982;SDS011;72623;51.184;7.176;2023-12-07T03:18:09;35.13;;;17.77;;
11982;SDS011;72623;51.184;7.176;2023-12-07T03:20:36;36.53;;;17.33;;
11982;SDS011;72623;51.184;7.176;2023-12-07T03:23:02;37.83;;;16.70;;
11982;SDS011;72623;51.184;7.176;2023-12-07T03:25:29;31.30;;;15.80;;
11982;SDS011;72623;51.184;7.176;2023-12-07T03:27:56;33.47;;;18.33;;
11982;SDS011;72623;51.184;7.176;2023-12-07T03:33:33;35.80;;;17.03;;
11982;SDS011;72623;51.184;7.176;2023-12-07T03:35:59;37.57;;;18.27;;
11982;SDS011;72623;51.184;7.176;2023-12-07T03:38:27;32.57;;;16.97;;
11982;SDS011;72623;51.184;7.176;2023-12-07T03:40:53;35.00;;;18.03;;
11982;SDS011;72623;51.184;7.176;2023-12-07T03:43:21;32.20;;;16.63;;
11982;SDS011;72623;51.184;7.176;2023-12-07T03:45:47;37.40;;;16.13;;
11982;SDS011;72623;51.184;7.176;2023-12-07T03:48:14;33.07;;;14.47;;
11982;SDS011;72623;51.184;7.176;2023-12-07T03:50:40;25.20;;;14.73;;
11982;SDS011;72623;51.184;7.176;2023-12-07T03:53:07;32.37;;;14.07;;
11982;SDS011;72623;51.184;7.176;2023-12-07T03:55:34;31.47;;;13.87;;
11982;SDS011;72623;51.184;7.176;2023-12-07T03:58:01;27.73;;;14.53;;
11982;SDS011;72623;51.184;7.176;2023-12-07T04:00:28;27.23;;;13.67;;
11982;SDS011;72623;51.184;7.176;2023-12-07T04:02:55;28.50;;;14.30;;
11982;SDS011;72623;51.184;7.176;2023-12-07T04:05:21;28.47;;;14.30;;
11982;SDS011;72623;51.184;7.176;2023-12-07T04:07:48;28.30;;;14.60;;
11982;SDS011;72623;51.184;7.176;2023-12-07T04:10:14;25.37;;;13.50;;
11982;SDS011;72623;51.184;7.176;2023-12-07T04:12:41;29.10;;;13.83;;
11982;SDS011;72623;51.184;7.176;2023-12-07T04:15:08;31.13;;;14.53;;
11982;SDS011;72623;51.184;7.176;2023-12-07T04:17:35;31.03;;;15.27;;
11982;SDS011;72623;51.184;7.176;2023-12-07T04:20:01;32.13;;;15.30;;
11982;SDS011;72623;51.184;7.176;2023-12-07T04:22:28;27.63;;;14.13;;
11982;SDS011;72623;51.184;7.176;2023-12-07T04:24:55;34.77;;;16.33;;
11982;SDS011;72623;51.184;7.176;2023-12-07T04:27:21;31.30;;;16.20;;
11982;SDS011;72623;51.184;7.176;2023-12-07T04:29:48;28.20;;;15.17;;
11982;SDS011;72623;51.184;7.176;2023-12-07T04:32:15;27.50;;;14.73;;
11982;SDS011;72623;51.184;7.176;2023-12-07T04:34:40;30.67;;;15.00;;
11982;SDS011;72623;51.184;7.176;2023-12-07T04:37:07;34.37;;;15.70;;
11982;SDS011;72623;51.184;7.176;2023-12-07T04:39:33;32.73;;;16.47;;
11982;SDS011;72623;51.184;7.176;2023-12-07T04:42:01;29.53;;;15.40;;
11982;SDS011;72623;51.184;7.176;2023-12-07T04:44:28;35.00;;;16.07;;
11982;SDS011;72623;51.184;7.176;2023-12-07T04:46:54;33.07;;;16.10;;
11982;SDS011;72623;51.184;7.176;2023-12-07T04:49:21;33.07;;;15.97;;
11982;SDS011;72623;51.184;7.176;2023-12-07T04:51:48;25.80;;;15.00;;
11982;SDS011;72623;51.184;7.176;2023-12-07T04:54:14;28.80;;;14.87;;
11982;SDS011;72623;51.184;7.176;2023-12-07T04:56:41;30.37;;;14.63;;
11982;SDS011;72623;51.184;7.176;2023-12-07T04:59:09;32.40;;;16.10;;
11982;SDS011;72623;51.184;7.176;2023-12-07T05:01:36;31.53;;;16.07;;
11982;SDS011;72623;51.184;7.176;2023-12-07T05:04:03;30.30;;;14.70;;
11982;SDS011;72623;51.184;7.176;2023-12-07T05:06:30;33.57;;;15.87;;
11982;SDS011;72623;51.184;7.176;2023-12-07T05:08:57;30.93;;;15.73;;
11982;SDS011;72623;51.184;7.176;2023-12-07T05:11:24;29.17;;;16.23;;
11982;SDS011;72623;51.184;7.176;2023-12-07T05:13:51;34.73;;;16.90;;
11982;SDS011;72623;51.184;7.176;2023-12-07T05:16:18;36.00;;;16.33;;
11982;SDS011;72623;51.184;7.176;2023-12-07T05:18:44;35.53;;;16.33;;
11982;SDS011;72623;51.184;7.176;2023-12-07T05:21:11;31.87;;;16.00;;
11982;SDS011;72623;51.184;7.176;2023-12-07T05:23:38;34.27;;;16.97;;
11982;SDS011;72623;51.184;7.176;2023-12-07T05:26:04;28.00;;;16.03;;
11982;SDS011;72623;51.184;7.176;2023-12-07T05:28:33;37.83;;;16.63;;
11982;SDS011;72623;51.184;7.176;2023-12-07T05:30:59;29.93;;;15.30;;
11982;SDS011;72623;51.184;7.176;2023-12-07T05:33:26;36.00;;;15.97;;
11982;SDS011;72623;51.184;7.176;2023-12-07T05:35:53;30.93;;;16.43;;
11982;SDS011;72623;51.184;7.176;2023-12-07T05:38:19;33.30;;;16.90;;
11982;SDS011;72623;51.184;7.176;2023-12-07T05:40:46;36.07;;;17.03;;
11982;SDS011;72623;51.184;7.176;2023-12-07T05:43:12;29.93;;;16.27;;
11982;SDS011;72623;51.184;7.176;2023-12-07T05:45:39;32.00;;;15.40;;
11982;SDS011;72623;51.184;7.176;2023-12-07T05:48:06;35.73;;;17.53;;
11982;SDS011;72623;51.184;7.176;2023-12-07T05:50:32;36.00;;;16.27;;
11982;SDS011;72623;51.184;7.176;2023-12-07T05:52:59;34.70;;;15.87;;
11982;SDS011;72623;51.184;7.176;2023-12-07T05:55:25;31.37;;;16.43;;
11982;SDS011;72623;51.184;7.176;2023-12-07T05:57:52;36.57;;;17.87;;
11982;SDS011;72623;51.184;7.176;2023-12-07T06:00:19;34.97;;;16.53;;
11982;SDS011;72623;51.184;7.176;2023-12-07T06:02:46;37.80;;;17.40;;
11982;SDS011;72623;51.184;7.176;2023-12-07T06:05:13;35.40;;;16.40;;
11982;SDS011;72623;51.184;7.176;2023-12-07T06:07:40;39.10;;;18.90;;
11982;SDS011;72623;51.184;7.176;2023-12-07T06:10:07;39.03;;;18.40;;
11982;SDS011;72623;51.184;7.176;2023-12-07T06:12:34;35.73;;;17.37;;
11982;SDS011;72623;51.184;7.176;2023-12-07T06:15:00;35.37;;;18.90;;
11982;SDS011;72623;51.184;7.176;2023-12-07T06:17:27;41.37;;;18.73;;
11982;SDS011;72623;51.184;7.176;2023-12-07T06:19:54;40.03;;;17.97;;
11982;SDS011;72623;51.184;7.176;2023-12-07T06:22:20;43.63;;;19.13;;
11982;SDS011;72623;51.184;7.176;2023-12-07T06:24:47;37.40;;;19.47;;
11982;SDS011;72623;51.184;7.176;2023-12-07T06:27:13;39.47;;;18.80;;
11982;SDS011;72623;51.184;7.176;2023-12-07T06:29:40;42.23;;;20.27;;
11982;SDS011;72623;51.184;7.176;2023-12-07T06:32:06;33.47;;;18.23;;
11982;SDS011;72623;51.184;7.176;2023-12-07T06:34:33;32.57;;;17.90;;
11982;SDS011;72623;51.184;7.176;2023-12-07T06:37:00;37.17;;;17.90;;
11982;SDS011;72623;51.184;7.176;2023-12-07T06:39:26;40.13;;;18.17;;
11982;SDS011;72623;51.184;7.176;2023-12-07T06:41:53;35.43;;;18.17;;
11982;SDS011;72623;51.184;7.176;2023-12-07T06:44:20;36.93;;;18.27;;
11982;SDS011;72623;51.184;7.176;2023-12-07T06:46:47;47.33;;;19.77;;
11982;SDS011;72623;51.184;7.176;2023-12-07T06:49:14;43.57;;;17.93;;
11982;SDS011;72623;51.184;7.176;2023-12-07T06:51:41;42.33;;;19.03;;
11982;SDS011;72623;51.184;7.176;2023-12-07T06:54:07;37.67;;;17.17;;
11982;SDS011;72623;51.184;7.176;2023-12-07T06:56:34;34.23;;;16.80;;
11982;SDS011;72623;51.184;7.176;2023-12-07T06:59:00;37.33;;;16.97;;
11982;SDS011;72623;51.184;7.176;2023-12-07T07:01:27;41.67;;;18.37;;
11982;SDS011;72623;51.184;7.176;2023-12-07T07:03:54;34.30;;;14.47;;
11982;SDS011;72623;51.184;7.176;2023-12-07T07:06:21;35.20;;;16.47;;
11982;SDS011;72623;51.184;7.176;2023-12-07T07:08:48;39.30;;;18.80;;
11982;SDS011;72623;51.184;7.176;2023-12-07T07:11:15;37.10;;;18.53;;
11982;SDS011;72623;51.184;7.176;2023-12-07T07:13:41;40.73;;;18.83;;
11982;SDS011;72623;51.184;7.176;2023-12-07T07:16:08;39.77;;;18.07;;
11982;SDS011;72623;51.184;7.176;2023-12-07T07:18:37;42.60;;;17.17;;
11982;SDS011;72623;51.184;7.176;2023-12-07T07:21:04;45.50;;;18.20;;
11982;SDS011;72623;51.184;7.176;2023-12-07T07:23:32;39.23;;;18.53;;
11982;SDS011;72623;51.184;7.176;2023-12-07T07:26:00;42.53;;;18.50;;
11982;SDS011;72623;51.184;7.176;2023-12-07T07:28:27;37.17;;;17.97;;
11982;SDS011;72623;51.184;7.176;2023-12-07T07:30:54;38.63;;;17.57;;
11982;SDS011;72623;51.184;7.176;2023-12-07T07:33:20;35.80;;;17.90;;
11982;SDS011;72623;51.184;7.176;2023-12-07T07:35:47;38.37;;;17.87;;
11982;SDS011;72623;51.184;7.176;2023-12-07T07:38:13;44.57;;;18.47;;
11982;SDS011;72623;51.184;7.176;2023-12-07T07:40:40;44.30;;;20.13;;
11982;SDS011;72623;51.184;7.176;2023-12-07T07:43:07;39.90;;;17.77;;
11982;SDS011;72623;51.184;7.176;2023-12-07T07:45:34;36.47;;;17.43;;
11982;SDS011;72623;51.184;7.176;2023-12-07T07:48:01;37.63;;;18.30;;
11982;SDS011;72623;51.184;7.176;2023-12-07T07:50:27;27.43;;;14.40;;
11982;SDS011;72623;51.184;7.176;2023-12-07T07:52:54;47.90;;;20.50;;
11982;SDS011;72623;51.184;7.176;2023-12-07T07:55:21;31.53;;;15.33;;
11982;SDS011;72623;51.184;7.176;2023-12-07T07:57:47;33.50;;;16.87;;
11982;SDS011;72623;51.184;7.176;2023-12-07T08:00:14;32.43;;;16.20;;
11982;SDS011;72623;51.184;7.176;2023-12-07T08:02:42;37.07;;;17.27;;
11982;SDS011;72623;51.184;7.176;2023-12-07T08:05:09;31.00;;;15.13;;
11982;SDS011;72623;51.184;7.176;2023-12-07T08:07:36;32.33;;;14.90;;
11982;SDS011;72623;51.184;7.176;2023-12-07T08:10:02;33.60;;;16.10;;
11982;SDS011;72623;51.184;7.176;2023-12-07T08:12:29;32.47;;;16.53;;
11982;SDS011;72623;51.184;7.176;2023-12-07T08:14:56;28.20;;;16.43;;
11982;SDS011;72623;51.184;7.176;2023-12-07T08:17:22;29.37;;;13.70;;
11982;SDS011;72623;51.184;7.176;2023-12-07T08:19:51;27.87;;;15.83;;
11982;SDS011;72623;51.184;7.176;2023-12-07T08:22:18;29.40;;;15.33;;
11982;SDS011;72623;51.184;7.176;2023-12-07T08:24:45;31.53;;;15.90;;
11982;SDS011;72623;51.184;7.176;2023-12-07T08:27:12;28.73;;;16.40;;
11982;SDS011;72623;51.184;7.176;2023-12-07T08:29:39;32.50;;;14.77;;
11982;SDS011;72623;51.184;7.176;2023-12-07T08:32:06;37.17;;;16.00;;
11982;SDS011;72623;51.184;7.176;2023-12-07T08:34:32;26.97;;;13.70;;
11982;SDS011;72623;51.184;7.176;2023-12-07T08:36:59;25.93;;;15.43;;
11982;SDS011;72623;51.184;7.176;2023-12-07T08:39:25;24.87;;;13.67;;
11982;SDS011;72623;51.184;7.176;2023-12-07T08:41:52;31.40;;;15.67;;
11982;SDS011;72623;51.184;7.176;2023-12-07T08:44:19;24.70;;;13.67;;
11982;SDS011;72623;51.184;7.176;2023-12-07T08:46:45;27.63;;;14.83;;
11982;SDS011;72623;51.184;7.176;2023-12-07T08:49:12;37.53;;;15.03;;
11982;SDS011;72623;51.184;7.176;2023-12-07T08:51:39;26.97;;;15.53;;
11982;SDS011;72623;51.184;7.176;2023-12-07T08:54:06;28.73;;;15.20;;
11982;SDS011;72623;51.184;7.176;2023-12-07T08:56:32;26.03;;;14.23;;
11982;SDS011;72623;51.184;7.176;2023-12-07T08:58:59;27.70;;;15.40;;
11982;SDS011;72623;51.184;7.176;2023-12-07T09:01:25;27.00;;;15.97;;
11982;SDS011;72623;51.184;7.176;2023-12-07T09:03:52;30.20;;;15.63;;
11982;SDS011;72623;51.184;7.176;2023-12-07T09:06:19;29.17;;;15.73;;
11982;SDS011;72623;51.184;7.176;2023-12-07T09:08:45;23.73;;;14.13;;
11982;SDS011;72623;51.184;7.176;2023-12-07T09:11:12;24.63;;;13.70;;
11982;SDS011;72623;51.184;7.176;2023-12-07T09:13:38;21.97;;;13.17;;
11982;SDS011;72623;51.184;7.176;2023-12-07T09:16:05;25.20;;;14.93;;
11982;SDS011;72623;51.184;7.176;2023-12-07T09:18:33;22.40;;;12.50;;
11982;SDS011;72623;51.184;7.176;2023-12-07T09:21:00;23.03;;;13.27;;
11982;SDS011;72623;51.184;7.176;2023-12-07T09:23:28;19.77;;;12.77;;
11982;SDS011;72623;51.184;7.176;2023-12-07T09:25:54;22.43;;;12.57;;
11982;SDS011;72623;51.184;7.176;2023-12-07T09:28:21;21.87;;;12.50;;
11982;SDS011;72623;51.184;7.176;2023-12-07T09:30:48;19.67;;;12.27;;
11982;SDS011;72623;51.184;7.176;2023-12-07T09:33:15;18.20;;;11.37;;
11982;SDS011;72623;51.184;7.176;2023-12-07T09:35:42;22.50;;;11.93;;
11982;SDS011;72623;51.184;7.176;2023-12-07T09:38:08;17.67;;;11.30;;
11982;SDS011;72623;51.184;7.176;2023-12-07T09:40:35;20.33;;;11.63;;
11982;SDS011;72623;51.184;7.176;2023-12-07T09:43:02;19.63;;;10.33;;
11982;SDS011;72623;51.184;7.176;2023-12-07T09:45:29;15.67;;;10.13;;
11982;SDS011;72623;51.184;7.176;2023-12-07T09:47:55;14.07;;;9.80;;
11982;SDS011;72623;51.184;7.176;2023-12-07T09:50:25;15.83;;;9.10;;
11982;SDS011;72623;51.184;7.176;2023-12-07T09:52:54;15.17;;;9.10;;
11982;SDS011;72623;51.184;7.176;2023-12-07T09:55:23;15.53;;;9.10;;
11982;SDS011;72623;51.184;7.176;2023-12-07T09:57:51;13.93;;;9.27;;
11982;SDS011;72623;51.184;7.176;2023-12-07T10:00:19;13.33;;;8.53;;
11982;SDS011;72623;51.184;7.176;2023-12-07T10:02:46;13.67;;;8.80;;
11982;SDS011;72623;51.184;7.176;2023-12-07T10:05:13;11.70;;;8.17;;
11982;SDS011;72623;51.184;7.176;2023-12-07T10:07:45;12.03;;;8.70;;
11982;SDS011;72623;51.184;7.176;2023-12-07T10:10:14;14.00;;;8.63;;
11982;SDS011;72623;51.184;7.176;2023-12-07T10:13:00;13.60;;;9.37;;
11982;SDS011;72623;51.184;7.176;2023-12-07T10:15:27;16.90;;;10.00;;
11982;SDS011;72623;51.184;7.176;2023-12-07T10:17:55;14.87;;;9.23;;
11982;SDS011;72623;51.184;7.176;2023-12-07T10:20:24;13.67;;;9.27;;
11982;SDS011;72623;51.184;7.176;2023-12-07T10:23:01;14.97;;;8.50;;
11982;SDS011;72623;51.184;7.176;2023-12-07T10:25:42;16.93;;;10.10;;
11982;SDS011;72623;51.184;7.176;2023-12-07T10:28:09;16.63;;;11.17;;
11982;SDS011;72623;51.184;7.176;2023-12-07T10:30:37;17.53;;;9.87;;
11982;SDS011;72623;51.184;7.176;2023-12-07T10:33:06;17.67;;;10.73;;
11982;SDS011;72623;51.184;7.176;2023-12-07T10:35:40;14.77;;;9.17;;
11982;SDS011;72623;51.184;7.176;2023-12-07T10:38:08;17.67;;;9.87;;
11982;SDS011;72623;51.184;7.176;2023-12-07T10:40:35;16.13;;;9.13;;
11982;SDS011;72623;51.184;7.176;2023-12-07T10:43:03;15.50;;;9.50;;
11982;SDS011;72623;51.184;7.176;2023-12-07T10:45:31;18.20;;;9.87;;
11982;SDS011;72623;51.184;7.176;2023-12-07T10:48:08;19.93;;;11.63;;
11982;SDS011;72623;51.184;7.176;2023-12-07T10:50:36;16.37;;;10.83;;
11982;SDS011;72623;51.184;7.176;2023-12-07T10:56:00;17.90;;;10.63;;
11982;SDS011;72623;51.184;7.176;2023-12-07T10:58:30;17.10;;;10.93;;
11982;SDS011;72623;51.184;7.176;2023-12-07T11:01:01;23.53;;;10.70;;
11982;SDS011;72623;51.184;7.176;2023-12-07T11:03:29;15.90;;;8.67;;
11982;SDS011;72623;51.184;7.176;2023-12-07T11:05:56;10.87;;;7.53;;
11982;SDS011;72623;51.184;7.176;2023-12-07T11:08:28;21.57;;;10.23;;
11982;SDS011;72623;51.184;7.176;2023-12-07T11:11:07;16.03;;;9.83;;
11982;SDS011;72623;51.184;7.176;2023-12-07T11:16:36;16.70;;;10.37;;
11982;SDS011;72623;51.184;7.176;2023-12-07T11:22:06;19.77;;;11.00;;
11982;SDS011;72623;51.184;7.176;2023-12-07T11:24:33;18.60;;;10.27;;
11982;SDS011;72623;51.184;7.176;2023-12-07T11:27:01;17.33;;;10.03;;
11982;SDS011;72623;51.184;7.176;2023-12-07T11:29:29;17.10;;;9.80;;
11982;SDS011;72623;51.184;7.176;2023-12-07T11:31:56;14.20;;;9.63;;
11982;SDS011;72623;51.184;7.176;2023-12-07T11:34:41;16.37;;;10.27;;
11982;SDS011;72623;51.184;7.176;2023-12-07T11:37:11;15.27;;;9.93;;
11982;SDS011;72623;51.184;7.176;2023-12-07T11:39:41;20.40;;;9.60;;
11982;SDS011;72623;51.184;7.176;2023-12-07T11:42:11;18.67;;;9.33;;
11982;SDS011;72623;51.184;7.176;2023-12-07T11:44:41;18.17;;;10.03;;
11982;SDS011;72623;51.184;7.176;2023-12-07T11:47:10;16.93;;;9.93;;
11982;SDS011;72623;51.184;7.176;2023-12-07T11:49:42;14.50;;;9.70;;
11982;SDS011;72623;51.184;7.176;2023-12-07T11:52:13;16.70;;;9.27;;
11982;SDS011;72623;51.184;7.176;2023-12-07T11:54:47;14.87;;;9.00;;
11982;SDS011;72623;51.184;7.176;2023-12-07T11:57:14;15.30;;;9.80;;
11982;SDS011;72623;51.184;7.176;2023-12-07T11:59:46;16.20;;;8.80;;
11982;SDS011;72623;51.184;7.176;2023-12-07T12:02:13;14.10;;;9.57;;
11982;SDS011;72623;51.184;7.176;2023-12-07T12:04:40;16.87;;;10.03;;
11982;SDS011;72623;51.184;7.176;2023-12-07T12:07:07;17.30;;;9.37;;
11982;SDS011;72623;51.184;7.176;2023-12-07T12:09:34;17.87;;;10.73;;
11982;SDS011;72623;51.184;7.176;2023-12-07T12:12:00;18.17;;;9.33;;
11982;SDS011;72623;51.184;7.176;2023-12-07T12:14:28;15.27;;;9.57;;
11982;SDS011;72623;51.184;7.176;2023-12-07T12:16:55;16.27;;;8.87;;
11982;SDS011;72623;51.184;7.176;2023-12-07T12:19:22;15.40;;;9.23;;
11982;SDS011;72623;51.184;7.176;2023-12-07T12:21:49;13.63;;;8.43;;
11982;SDS011;72623;51.184;7.176;2023-12-07T12:24:16;12.33;;;8.17;;
11982;SDS011;72623;51.184;7.176;2023-12-07T12:26:43;12.23;;;8.00;;
11982;SDS011;72623;51.184;7.176;2023-12-07T12:29:10;14.33;;;8.40;;
11982;SDS011;72623;51.184;7.176;2023-12-07T12:31:37;13.47;;;8.50;;
11982;SDS011;72623;51.184;7.176;2023-12-07T12:34:07;14.57;;;8.00;;
11982;SDS011;72623;51.184;7.176;2023-12-07T12:36:34;13.83;;;8.77;;
11982;SDS011;72623;51.184;7.176;2023-12-07T12:39:01;16.77;;;9.60;;
11982;SDS011;72623;51.184;7.176;2023-12-07T12:41:28;18.63;;;9.47;;
11982;SDS011;72623;51.184;7.176;2023-12-07T12:43:55;15.93;;;9.43;;
11982;SDS011;72623;51.184;7.176;2023-12-07T12:46:22;17.97;;;9.10;;
11982;SDS011;72623;51.184;7.176;2023-12-07T12:48:59;14.37;;;9.00;;
11982;SDS011;72623;51.184;7.176;2023-12-07T12:51:28;16.17;;;9.63;;
11982;SDS011;72623;51.184;7.176;2023-12-07T12:53:57;13.93;;;8.47;;
11982;SDS011;72623;51.184;7.176;2023-12-07T12:56:26;18.07;;;8.13;;
11982;SDS011;72623;51.184;7.176;2023-12-07T12:58:53;17.27;;;9.10;;
11982;SDS011;72623;51.184;7.176;2023-12-07T13:01:22;20.90;;;9.63;;
11982;SDS011;72623;51.184;7.176;2023-12-07T13:03:49;16.93;;;8.23;;
11982;SDS011;72623;51.184;7.176;2023-12-07T13:06:16;14.10;;;8.27;;
11982;SDS011;72623;51.184;7.176;2023-12-07T13:08:43;13.07;;;8.33;;
11982;SDS011;72623;51.184;7.176;2023-12-07T13:11:14;11.97;;;8.03;;
11982;SDS011;72623;51.184;7.176;2023-12-07T13:13:42;14.93;;;8.43;;
11982;SDS011;72623;51.184;7.176;2023-12-07T13:16:09;13.40;;;8.00;;
11982;SDS011;72623;51.184;7.176;2023-12-07T13:18:36;17.37;;;8.53;;
11982;SDS011;72623;51.184;7.176;2023-12-07T13:21:03;13.50;;;8.40;;
11982;SDS011;72623;51.184;7.176;2023-12-07T13:23:30;12.47;;;8.47;;
11982;SDS011;72623;51.184;7.176;2023-12-07T13:25:57;11.27;;;7.67;;
11982;SDS011;72623;51.184;7.176;2023-12-07T13:28:23;23.60;;;13.73;;
11982;SDS011;72623;51.184;7.176;2023-12-07T13:30:50;48.50;;;22.37;;
11982;SDS011;72623;51.184;7.176;2023-12-07T13:33:18;17.93;;;10.70;;
11982;SDS011;72623;51.184;7.176;2023-12-07T13:35:45;19.07;;;8.93;;
11982;SDS011;72623;51.184;7.176;2023-12-07T13:38:12;12.77;;;7.50;;
11982;SDS011;72623;51.184;7.176;2023-12-07T13:40:38;13.37;;;8.60;;
11982;SDS011;72623;51.184;7.176;2023-12-07T13:43:06;15.17;;;8.33;;
11982;SDS011;72623;51.184;7.176;2023-12-07T13:45:34;14.00;;;7.80;;
11982;SDS011;72623;51.184;7.176;2023-12-07T13:48:00;14.00;;;9.40;;
11982;SDS011;72623;51.184;7.176;2023-12-07T13:50:27;11.63;;;8.23;;
11982;SDS011;72623;51.184;7.176;2023-12-07T13:52:54;12.40;;;8.03;;
11982;SDS011;72623;51.184;7.176;2023-12-07T13:55:20;13.87;;;7.60;;
11982;SDS011;72623;51.184;7.176;2023-12-07T13:57:49;14.97;;;7.57;;
11982;SDS011;72623;51.184;7.176;2023-12-07T14:00:34;14.03;;;7.60;;
11982;SDS011;72623;51.184;7.176;2023-12-07T14:03:00;12.33;;;7.47;;
11982;SDS011;72623;51.184;7.176;2023-12-07T14:05:27;12.00;;;7.70;;
11982;SDS011;72623;51.184;7.176;2023-12-07T14:07:54;15.10;;;9.27;;
11982;SDS011;72623;51.184;7.176;2023-12-07T14:10:20;13.60;;;7.93;;
11982;SDS011;72623;51.184;7.176;2023-12-07T14:12:47;12.67;;;8.20;;
11982;SDS011;72623;51.184;7.176;2023-12-07T14:15:14;10.87;;;6.90;;
11982;SDS011;72623;51.184;7.176;2023-12-07T14:17:41;14.40;;;8.73;;
11982;SDS011;72623;51.184;7.176;2023-12-07T14:20:07;18.03;;;7.93;;
11982;SDS011;72623;51.184;7.176;2023-12-07T14:22:34;14.07;;;7.83;;
11982;SDS011;72623;51.184;7.176;2023-12-07T14:25:01;14.30;;;7.37;;
11982;SDS011;72623;51.184;7.176;2023-12-07T14:27:28;13.50;;;7.50;;
11982;SDS011;72623;51.184;7.176;2023-12-07T14:29:55;10.07;;;6.97;;
11982;SDS011;72623;51.184;7.176;2023-12-07T14:32:21;10.77;;;7.53;;
11982;SDS011;72623;51.184;7.176;2023-12-07T14:34:49;11.87;;;7.37;;
11982;SDS011;72623;51.184;7.176;2023-12-07T14:37:16;13.03;;;7.23;;
11982;SDS011;72623;51.184;7.176;2023-12-07T14:39:43;11.27;;;7.63;;
11982;SDS011;72623;51.184;7.176;2023-12-07T14:42:09;12.00;;;7.73;;
11982;SDS011;72623;51.184;7.176;2023-12-07T14:44:36;11.50;;;6.90;;
11982;SDS011;72623;51.184;7.176;2023-12-07T14:47:03;10.00;;;7.27;;
11982;SDS011;72623;51.184;7.176;2023-12-07T14:49:30;12.80;;;7.40;;
11982;SDS011;72623;51.184;7.176;2023-12-07T14:51:57;15.47;;;7.20;;